createdAt,value
2022-12-18T00:01:45.868Z,17.75
2022-12-18T00:04:24.809Z,10.57
2022-12-18T00:06:57.406Z,13.00
2022-12-18T00:09:31.591Z,6.47
2022-12-18T00:14:47.009Z,17.45
2022-12-18T00:17:16.687Z,11.00
2022-12-18T00:19:46.913Z,16.05
2022-12-18T00:22:17.649Z,12.43
2022-12-18T00:24:47.712Z,16.23
2022-12-18T00:27:19.734Z,13.75
2022-12-18T00:29:51.688Z,16.45
2022-12-18T00:32:21.330Z,15.40
2022-12-18T00:34:51.579Z,11.75
2022-12-18T00:37:23.819Z,14.05
2022-12-18T00:39:53.337Z,29.10
2022-12-18T00:42:41.691Z,12.20
2022-12-18T00:45:13.371Z,14.00
2022-12-18T00:47:43.993Z,11.68
2022-12-18T00:50:14.890Z,11.27
2022-12-18T00:52:45.293Z,15.68
2022-12-18T00:55:16.921Z,14.25
2022-12-18T00:57:49.927Z,13.65
2022-12-18T01:00:20.414Z,7.28
2022-12-18T01:02:50.546Z,12.73
2022-12-18T01:05:21.501Z,14.43
2022-12-18T01:07:50.645Z,11.32
2022-12-18T01:10:19.980Z,11.27
2022-12-18T01:12:51.255Z,15.75
2022-12-18T01:15:20.939Z,14.00
2022-12-18T01:17:50.557Z,16.00
2022-12-18T01:20:20.048Z,13.38
2022-12-18T01:22:50.078Z,8.13
2022-12-18T01:25:20.988Z,14.82
2022-12-18T01:27:52.470Z,8.07
2022-12-18T01:30:23.121Z,14.35
2022-12-18T01:32:54.271Z,15.13
2022-12-18T01:35:24.134Z,17.35
2022-12-18T01:37:57.865Z,11.50
2022-12-18T01:40:27.734Z,15.70
2022-12-18T01:42:59.398Z,16.65
2022-12-18T01:45:32.436Z,12.38
2022-12-18T01:48:06.305Z,6.78
2022-12-18T01:50:39.905Z,14.15
2022-12-18T01:53:16.454Z,12.95
2022-12-18T01:55:51.732Z,9.45
2022-12-18T01:58:26.783Z,9.98
2022-12-18T02:01:01.064Z,19.02
2022-12-18T02:03:30.827Z,13.15
2022-12-18T02:06:12.678Z,8.85
2022-12-18T02:08:53.775Z,8.98
2022-12-18T02:11:41.483Z,11.32
2022-12-18T02:14:29.315Z,9.38
2022-12-18T02:17:05.853Z,10.98
2022-12-18T02:20:05.464Z,11.43
2022-12-18T02:22:53.678Z,9.57
2022-12-18T02:25:49.775Z,11.57
2022-12-18T02:28:26.039Z,12.27
2022-12-18T02:31:02.644Z,9.23
2022-12-18T02:33:36.262Z,12.43
2022-12-18T02:36:08.508Z,10.25
2022-12-18T02:38:39.931Z,10.32
2022-12-18T02:41:10.994Z,11.73
2022-12-18T02:43:43.278Z,12.43
2022-12-18T02:46:35.501Z,9.27
2022-12-18T02:49:31.145Z,17.58
2022-12-18T02:52:17.656Z,9.23
2022-12-18T02:55:41.073Z,9.85
2022-12-18T02:58:20.865Z,12.25
2022-12-18T03:01:01.931Z,12.05
2022-12-18T03:03:39.265Z,10.05
2022-12-18T03:06:21.280Z,17.90
2022-12-18T03:09:00.626Z,19.20
2022-12-18T03:12:16.604Z,9.25
2022-12-18T03:14:51.732Z,9.57
2022-12-18T03:17:25.172Z,12.05
2022-12-18T03:19:59.980Z,13.63
2022-12-18T03:22:36.653Z,23.20
2022-12-18T03:25:12.022Z,11.70
2022-12-18T03:27:48.877Z,12.30
2022-12-18T03:30:20.619Z,10.27
2022-12-18T03:33:04.322Z,13.05
2022-12-18T03:35:42.440Z,15.60
2022-12-18T03:38:14.317Z,11.48
2022-12-18T03:41:06.400Z,20.00
2022-12-18T03:43:53.513Z,9.98
2022-12-18T03:46:33.071Z,10.50
2022-12-18T03:49:14.283Z,12.20
2022-12-18T03:51:51.606Z,10.82
2022-12-18T03:54:24.262Z,10.52
2022-12-18T03:57:01.900Z,22.00
2022-12-18T03:59:34.652Z,12.25
2022-12-18T04:02:08.142Z,18.70
2022-12-18T04:04:41.660Z,13.85
2022-12-18T04:07:12.283Z,15.00
2022-12-18T04:09:45.114Z,11.23
2022-12-18T04:12:14.674Z,8.93
2022-12-18T04:14:44.725Z,10.88
2022-12-18T04:17:14.873Z,16.58
2022-12-18T04:19:46.197Z,8.70
2022-12-18T04:22:16.068Z,10.10
2022-12-18T04:24:45.508Z,12.10
2022-12-18T04:27:15.791Z,9.48
2022-12-18T04:29:47.627Z,8.70
2022-12-18T04:32:19.190Z,10.07
2022-12-18T04:34:51.501Z,9.88
2022-12-18T04:37:20.454Z,18.67
2022-12-18T04:39:50.001Z,8.63
2022-12-18T04:42:20.144Z,15.40
2022-12-18T04:44:50.622Z,9.35
2022-12-18T04:47:20.793Z,8.10
2022-12-18T04:49:51.744Z,14.48
2022-12-18T04:52:26.039Z,13.25
2022-12-18T04:54:55.808Z,12.02
2022-12-18T04:57:26.477Z,10.07
2022-12-18T04:59:56.584Z,10.45
2022-12-18T05:02:26.208Z,7.25
2022-12-18T05:04:56.994Z,10.35
2022-12-18T05:07:27.040Z,9.77
2022-12-18T05:09:57.009Z,11.32
2022-12-18T05:12:26.418Z,8.05
2022-12-18T05:14:56.334Z,10.40
2022-12-18T05:17:24.876Z,10.98
2022-12-18T05:19:55.818Z,7.43
2022-12-18T05:22:25.913Z,10.95
2022-12-18T05:24:56.184Z,6.03
2022-12-18T05:27:26.615Z,8.18
2022-12-18T05:29:57.931Z,7.00
2022-12-18T05:32:26.926Z,19.10
2022-12-18T05:34:58.956Z,8.77
2022-12-18T05:37:28.685Z,12.02
2022-12-18T05:39:58.418Z,9.98
2022-12-18T05:42:28.063Z,7.43
2022-12-18T05:44:57.020Z,9.20
2022-12-18T05:47:27.863Z,10.27
2022-12-18T05:49:59.281Z,4.35
2022-12-18T05:52:28.609Z,8.07
2022-12-18T05:55:00.626Z,7.90
2022-12-18T05:57:30.946Z,10.80
2022-12-18T06:00:00.918Z,6.32
2022-12-18T06:02:31.643Z,7.70
2022-12-18T06:05:03.118Z,9.48
2022-12-18T06:07:33.779Z,4.85
2022-12-18T06:10:04.161Z,7.03
2022-12-18T06:12:35.296Z,9.50
2022-12-18T06:15:04.575Z,10.82
2022-12-18T06:17:34.918Z,5.15
2022-12-18T06:20:08.066Z,7.40
2022-12-18T06:22:38.855Z,10.52
2022-12-18T06:25:11.085Z,6.85
2022-12-18T06:27:42.246Z,9.65
2022-12-18T06:30:17.404Z,6.65
2022-12-18T06:32:51.807Z,8.68
2022-12-18T06:35:27.816Z,7.55
2022-12-18T06:37:57.192Z,4.72
2022-12-18T06:40:26.687Z,8.07
2022-12-18T06:42:56.816Z,7.22
2022-12-18T06:45:27.082Z,10.70
2022-12-18T06:47:58.239Z,9.80
2022-12-18T06:50:30.482Z,10.73
2022-12-18T06:53:01.049Z,7.53
2022-12-18T06:55:32.151Z,10.77
2022-12-18T06:58:01.740Z,11.63
2022-12-18T07:00:31.108Z,7.88
2022-12-18T07:03:00.501Z,6.65
2022-12-18T07:05:31.461Z,8.80
2022-12-18T07:08:02.150Z,8.25
2022-12-18T07:10:32.764Z,5.63
2022-12-18T07:13:02.016Z,6.57
2022-12-18T07:15:31.696Z,9.60
2022-12-18T07:18:02.268Z,7.30
2022-12-18T07:20:34.470Z,5.07
2022-12-18T07:23:06.973Z,9.93
2022-12-18T07:25:38.067Z,7.70
2022-12-18T07:28:08.871Z,7.50
2022-12-18T07:30:41.509Z,8.63
2022-12-18T07:33:17.610Z,7.95
2022-12-18T07:35:48.115Z,7.22
2022-12-18T07:38:19.301Z,10.27
2022-12-18T07:40:48.716Z,7.28
2022-12-18T07:43:19.545Z,5.53
2022-12-18T07:45:52.651Z,9.88
2022-12-18T07:48:22.079Z,6.55
2022-12-18T07:50:52.394Z,9.07
2022-12-18T07:53:22.100Z,8.70
2022-12-18T07:56:25.424Z,9.40
2022-12-18T07:58:47.662Z,11.20
2022-12-18T08:01:18.729Z,6.38
2022-12-18T08:03:48.882Z,8.32
2022-12-18T08:06:24.158Z,7.00
2022-12-18T08:08:55.901Z,10.18
2022-12-18T08:11:27.387Z,14.57
2022-12-18T08:13:57.981Z,7.82
2022-12-18T08:16:28.257Z,6.72
2022-12-18T08:18:58.460Z,6.28
2022-12-18T08:21:31.976Z,8.48
2022-12-18T08:24:03.809Z,12.32
2022-12-18T08:26:33.915Z,11.18
2022-12-18T08:29:05.447Z,6.77
2022-12-18T08:31:34.780Z,11.85
2022-12-18T08:34:04.471Z,7.72
2022-12-18T08:36:36.279Z,6.65
2022-12-18T08:39:06.355Z,13.00
2022-12-18T08:41:38.928Z,6.85
2022-12-18T08:44:26.333Z,11.82
2022-12-18T08:46:57.125Z,8.30
2022-12-18T08:49:27.816Z,11.68
2022-12-18T08:52:00.529Z,5.85
2022-12-18T08:54:32.571Z,7.93
2022-12-18T08:57:02.146Z,12.10
2022-12-18T08:59:33.553Z,12.10
2022-12-18T09:02:04.627Z,15.60
2022-12-18T09:04:35.582Z,11.77
2022-12-18T09:07:06.629Z,12.77
2022-12-18T09:09:37.346Z,12.00
2022-12-18T09:12:07.163Z,15.30
2022-12-18T09:14:37.763Z,10.40
2022-12-18T09:17:07.315Z,12.93
2022-12-18T09:19:38.196Z,12.53
2022-12-18T09:22:08.437Z,13.37
2022-12-18T09:24:39.481Z,13.20
2022-12-18T09:27:10.665Z,17.10
2022-12-18T09:29:41.078Z,15.35
2022-12-18T09:32:10.527Z,17.47
2022-12-18T09:34:40.726Z,22.17
2022-12-18T09:37:12.445Z,15.73
2022-12-18T09:39:42.750Z,19.50
2022-12-18T09:42:23.405Z,14.30
2022-12-18T09:44:56.796Z,16.90
2022-12-18T09:47:33.074Z,17.63
2022-12-18T09:50:15.722Z,15.73
2022-12-18T09:52:55.589Z,25.47
2022-12-18T09:55:36.823Z,21.23
2022-12-18T09:58:16.261Z,20.30
2022-12-18T10:00:46.969Z,14.97
2022-12-18T10:03:18.954Z,16.77
2022-12-18T10:06:05.927Z,17.00
2022-12-18T10:08:53.283Z,24.70
2022-12-18T10:11:41.827Z,19.23
2022-12-18T10:14:23.560Z,16.17
2022-12-18T10:17:11.270Z,21.30
2022-12-18T10:19:51.298Z,23.60
2022-12-18T10:22:51.552Z,17.67
2022-12-18T10:25:28.731Z,18.53
2022-12-18T10:28:09.724Z,30.57
2022-12-18T10:30:42.534Z,17.97
2022-12-18T10:33:17.418Z,20.70
2022-12-18T10:35:50.253Z,17.37
2022-12-18T10:38:31.318Z,18.37
2022-12-18T10:41:04.535Z,17.63
2022-12-18T10:43:35.341Z,21.67
2022-12-18T10:46:18.846Z,17.53
2022-12-18T10:48:56.627Z,19.90
2022-12-18T10:51:31.378Z,17.10
2022-12-18T10:54:09.208Z,21.87
2022-12-18T10:56:42.565Z,18.10
2022-12-18T10:59:16.448Z,23.27
2022-12-18T11:01:53.212Z,18.07
2022-12-18T11:04:25.911Z,18.47
2022-12-18T11:07:04.880Z,20.97
2022-12-18T11:09:36.448Z,19.40
2022-12-18T11:12:19.296Z,26.50
2022-12-18T11:14:53.768Z,18.90
2022-12-18T11:17:27.497Z,20.47
2022-12-18T11:19:59.957Z,25.33
2022-12-18T11:22:32.181Z,16.93
2022-12-18T11:28:01.126Z,21.43
2022-12-18T11:30:33.372Z,21.27
2022-12-18T11:33:09.753Z,25.20
2022-12-18T11:35:48.369Z,22.70
2022-12-18T11:38:25.813Z,19.70
2022-12-18T11:41:05.699Z,18.57
2022-12-18T11:43:46.623Z,24.97
2022-12-18T11:46:23.292Z,20.70
2022-12-18T11:49:02.182Z,21.10
2022-12-18T11:51:38.003Z,24.80
2022-12-18T11:54:15.477Z,16.50
2022-12-18T11:56:52.200Z,26.10
2022-12-18T11:59:36.898Z,20.50
2022-12-18T12:02:32.788Z,27.90
2022-12-18T12:05:29.056Z,20.10
2022-12-18T12:08:11.187Z,19.23
2022-12-18T12:10:56.903Z,23.97
2022-12-18T12:13:51.387Z,22.87
2022-12-18T12:16:32.693Z,24.23
2022-12-18T12:19:27.056Z,23.20
2022-12-18T12:22:13.658Z,21.87
2022-12-18T12:25:02.669Z,21.10
2022-12-18T12:27:46.888Z,27.43
2022-12-18T12:30:24.379Z,24.37
2022-12-18T12:33:16.929Z,23.40
2022-12-18T12:35:58.567Z,24.90
2022-12-18T12:38:36.343Z,26.67
2022-12-18T12:41:31.252Z,20.73
2022-12-18T12:44:06.697Z,26.93
2022-12-18T12:46:43.284Z,24.00
2022-12-18T12:49:19.978Z,25.03
2022-12-18T12:51:58.467Z,20.63
2022-12-18T12:54:31.265Z,23.17
2022-12-18T12:57:09.146Z,19.70
2022-12-18T12:59:50.907Z,26.57
2022-12-18T13:02:31.814Z,21.73
2022-12-18T13:05:13.633Z,19.00
2022-12-18T13:07:52.628Z,30.70
2022-12-18T13:10:46.721Z,30.47
2022-12-18T13:13:23.592Z,19.47
2022-12-18T13:16:12.292Z,28.37
2022-12-18T13:18:50.419Z,22.77
2022-12-18T13:21:28.116Z,27.73
2022-12-18T13:23:59.111Z,30.33
2022-12-18T13:26:36.320Z,28.97
2022-12-18T13:29:07.842Z,26.20
2022-12-18T13:32:22.452Z,31.03
2022-12-18T13:35:44.330Z,23.43
2022-12-18T13:38:36.621Z,27.67
2022-12-18T13:41:26.744Z,22.97
2022-12-18T13:44:12.844Z,29.07
2022-12-18T13:46:47.901Z,25.13
2022-12-18T13:49:28.423Z,23.87
2022-12-18T13:51:58.972Z,20.03
2022-12-18T13:54:37.750Z,30.70
2022-12-18T13:57:28.160Z,26.10
2022-12-18T13:59:58.835Z,27.53
2022-12-18T14:02:30.466Z,24.53
2022-12-18T14:05:01.489Z,23.67
2022-12-18T14:07:41.839Z,33.27
2022-12-18T14:10:41.799Z,25.30
2022-12-18T14:13:13.421Z,24.43
2022-12-18T14:15:46.017Z,36.43
2022-12-18T14:18:26.083Z,27.40
2022-12-18T14:21:01.457Z,37.87
2022-12-18T14:23:34.562Z,31.93
2022-12-18T14:26:22.417Z,25.13
2022-12-18T14:28:54.929Z,31.97
2022-12-18T14:31:27.684Z,29.70
2022-12-18T14:33:57.639Z,25.70
2022-12-18T14:36:30.987Z,25.37
2022-12-18T14:39:01.879Z,24.37
2022-12-18T14:41:34.830Z,32.17
2022-12-18T14:44:15.911Z,24.40
2022-12-18T14:46:48.422Z,53.60
2022-12-18T14:49:29.527Z,27.47
2022-12-18T14:52:03.621Z,32.50
2022-12-18T14:54:35.135Z,30.10
2022-12-18T14:57:08.821Z,27.03
2022-12-18T14:59:38.759Z,31.37
2022-12-18T15:02:22.260Z,26.77
2022-12-18T15:05:08.426Z,24.83
2022-12-18T15:07:45.862Z,34.93
2022-12-18T15:10:19.578Z,25.37
2022-12-18T15:12:52.052Z,30.13
2022-12-18T15:15:49.131Z,30.93
2022-12-18T15:18:24.710Z,28.30
2022-12-18T15:20:58.033Z,25.33
2022-12-18T15:23:32.518Z,25.43
2022-12-18T15:26:05.680Z,33.13
2022-12-18T15:28:46.113Z,26.00
2022-12-18T15:31:47.276Z,24.17
2022-12-18T15:34:23.879Z,22.90
2022-12-18T15:36:53.374Z,23.97
2022-12-18T15:39:24.026Z,27.00
2022-12-18T15:42:10.601Z,28.37
2022-12-18T15:44:41.225Z,28.87
2022-12-18T15:47:15.533Z,24.80
2022-12-18T15:49:44.957Z,27.97
2022-12-18T15:52:27.523Z,34.67
2022-12-18T15:55:14.532Z,27.70
2022-12-18T15:57:43.928Z,25.93
2022-12-18T16:00:18.102Z,26.97
2022-12-18T16:02:48.855Z,27.10
2022-12-18T16:05:20.170Z,30.03
2022-12-18T16:07:49.976Z,29.27
2022-12-18T16:10:19.721Z,29.63
2022-12-18T16:12:49.797Z,27.53
2022-12-18T16:15:24.767Z,34.77
2022-12-18T16:17:55.898Z,27.10
2022-12-18T16:20:26.360Z,29.93
2022-12-18T16:22:55.225Z,27.63
2022-12-18T16:25:28.465Z,27.90
2022-12-18T16:27:58.669Z,30.43
2022-12-18T16:30:38.399Z,28.93
2022-12-18T16:33:09.217Z,28.53
2022-12-18T16:35:38.442Z,27.87
2022-12-18T16:38:08.860Z,37.10
2022-12-18T16:40:58.249Z,30.93
2022-12-18T16:43:28.572Z,29.40
2022-12-18T16:46:02.723Z,26.07
2022-12-18T16:48:31.880Z,35.53
2022-12-18T16:51:05.909Z,30.77
2022-12-18T16:53:35.448Z,29.00
2022-12-18T16:56:06.869Z,34.93
2022-12-18T16:58:36.552Z,29.27
2022-12-18T17:01:12.676Z,27.30
2022-12-18T17:03:45.068Z,31.20
2022-12-18T17:06:15.571Z,31.73
2022-12-18T17:08:47.627Z,39.20
2022-12-18T17:11:17.849Z,32.33
2022-12-18T17:13:47.628Z,28.27
2022-12-18T17:16:19.615Z,30.40
2022-12-18T17:18:49.395Z,33.80
2022-12-18T17:21:19.383Z,35.20
2022-12-18T17:23:48.159Z,32.93
2022-12-18T17:26:18.700Z,32.50
2022-12-18T17:28:49.376Z,28.67
2022-12-18T17:31:24.122Z,33.13
2022-12-18T17:33:53.673Z,34.43
2022-12-18T17:36:25.379Z,32.10
2022-12-18T17:38:56.158Z,32.70
2022-12-18T17:41:26.327Z,32.07
2022-12-18T17:43:56.671Z,24.33
2022-12-18T17:46:29.833Z,29.87
2022-12-18T17:49:00.560Z,31.37
2022-12-18T17:51:31.441Z,31.83
2022-12-18T17:54:00.971Z,31.10
2022-12-18T17:56:31.671Z,44.57
2022-12-18T17:59:01.544Z,34.53
2022-12-18T18:01:33.147Z,41.10
2022-12-18T18:04:02.694Z,36.03
2022-12-18T18:06:32.060Z,25.07
2022-12-18T18:09:03.789Z,27.27
2022-12-18T18:11:59.001Z,28.10
2022-12-18T18:14:28.870Z,38.53
2022-12-18T18:17:04.850Z,36.57
2022-12-18T18:19:36.456Z,32.43
2022-12-18T18:22:07.575Z,32.17
2022-12-18T18:24:39.462Z,39.03
2022-12-18T18:27:08.864Z,33.77
2022-12-18T18:29:38.152Z,35.33
2022-12-18T18:32:09.681Z,30.17
2022-12-18T18:34:39.534Z,33.00
2022-12-18T18:37:12.755Z,27.77
2022-12-18T18:39:42.436Z,38.70
2022-12-18T18:42:11.280Z,36.77
2022-12-18T18:44:47.159Z,31.90
2022-12-18T18:47:20.072Z,30.10
2022-12-18T18:49:50.896Z,32.40
2022-12-18T18:52:20.599Z,29.47
2022-12-18T18:55:11.457Z,35.60
2022-12-18T18:57:39.898Z,41.80
2022-12-18T19:00:10.731Z,36.47
2022-12-18T19:02:42.390Z,34.67
2022-12-18T19:05:12.876Z,40.53
2022-12-18T19:07:43.053Z,34.10
2022-12-18T19:10:13.927Z,30.97
2022-12-18T19:13:01.835Z,35.13
2022-12-18T19:15:30.957Z,34.80
2022-12-18T19:18:01.794Z,34.93
2022-12-18T19:20:31.427Z,31.93
2022-12-18T19:23:01.399Z,36.90
2022-12-18T19:25:40.159Z,32.30
2022-12-18T19:28:19.958Z,33.93
2022-12-18T19:31:00.794Z,27.57
2022-12-18T19:33:43.863Z,28.33
2022-12-18T19:36:22.972Z,31.53
2022-12-18T19:38:54.344Z,36.97
2022-12-18T19:41:26.095Z,31.67
2022-12-18T19:43:59.828Z,29.10
2022-12-18T19:46:29.407Z,37.20
2022-12-18T19:49:01.891Z,33.37
2022-12-18T19:51:34.273Z,35.40
2022-12-18T19:54:03.793Z,33.87
2022-12-18T19:56:35.575Z,27.87
2022-12-18T19:59:06.432Z,26.67
2022-12-18T20:01:36.828Z,33.93
2022-12-18T20:04:08.790Z,36.47
2022-12-18T20:06:49.366Z,32.17
2022-12-18T20:09:19.890Z,35.17
2022-12-18T20:11:50.690Z,28.80
2022-12-18T20:14:23.339Z,29.07
2022-12-18T20:16:54.617Z,36.13
2022-12-18T20:19:27.719Z,31.40
2022-12-18T20:21:58.084Z,36.07
2022-12-18T20:24:27.968Z,39.10
2022-12-18T20:26:57.528Z,32.60
2022-12-18T20:29:26.700Z,36.47
2022-12-18T20:31:55.695Z,32.33
2022-12-18T20:34:26.812Z,36.80
2022-12-18T20:36:57.277Z,40.70
2022-12-18T20:39:28.555Z,36.60
2022-12-18T20:41:59.602Z,34.17
2022-12-18T20:44:28.431Z,36.80
2022-12-18T20:47:00.379Z,39.30
2022-12-18T20:49:36.033Z,36.10
2022-12-18T20:52:07.346Z,34.27
2022-12-18T20:54:37.424Z,33.13
2022-12-18T20:57:06.630Z,38.80
2022-12-18T20:59:36.013Z,33.57
2022-12-18T21:02:05.374Z,32.73
2022-12-18T21:04:37.282Z,30.70
2022-12-18T21:07:08.549Z,34.03
2022-12-18T21:09:38.690Z,31.07
2022-12-18T21:12:40.344Z,33.50
2022-12-18T21:15:26.793Z,31.40
2022-12-18T21:17:59.373Z,34.93
2022-12-18T21:20:31.602Z,38.93
2022-12-18T21:23:12.063Z,35.53
2022-12-18T21:25:46.599Z,32.07
2022-12-18T21:28:18.001Z,35.23
2022-12-18T21:30:48.512Z,31.03
2022-12-18T21:33:18.393Z,37.80
2022-12-18T21:35:50.168Z,29.77
2022-12-18T21:38:19.953Z,34.43
2022-12-18T21:40:50.348Z,37.13
2022-12-18T21:43:36.775Z,41.33
2022-12-18T21:46:08.791Z,39.43
2022-12-18T21:48:39.193Z,34.30
2022-12-18T21:51:09.948Z,33.10
2022-12-18T21:53:39.699Z,34.43
2022-12-18T21:56:10.089Z,31.80
2022-12-18T21:58:55.429Z,38.90
2022-12-18T22:01:37.374Z,38.83
2022-12-18T22:04:08.519Z,30.83
2022-12-18T22:06:40.171Z,34.30
2022-12-18T22:09:09.314Z,34.53
2022-12-18T22:11:39.065Z,39.30
2022-12-18T22:14:09.673Z,38.03
2022-12-18T22:16:38.851Z,34.97
2022-12-18T22:19:09.482Z,31.57
2022-12-18T22:21:45.547Z,34.27
2022-12-18T22:24:19.610Z,35.73
2022-12-18T22:26:50.781Z,26.73
2022-12-18T22:29:41.005Z,40.23
2022-12-18T22:32:13.875Z,35.33
2022-12-18T22:34:45.897Z,33.60
2022-12-18T22:37:16.887Z,36.50
2022-12-18T22:39:46.373Z,39.60
2022-12-18T22:42:16.220Z,32.27
2022-12-18T22:44:45.572Z,33.07
2022-12-18T22:47:18.722Z,31.23
2022-12-18T22:49:48.849Z,32.17
2022-12-18T22:52:20.300Z,33.70
2022-12-18T22:54:54.523Z,42.93
2022-12-18T22:57:23.799Z,30.67
2022-12-18T22:59:53.862Z,33.77
2022-12-18T23:02:23.804Z,37.67
2022-12-18T23:04:54.119Z,37.00
2022-12-18T23:07:25.675Z,33.03
2022-12-18T23:09:59.649Z,34.90
2022-12-18T23:12:30.671Z,33.47
2022-12-18T23:15:01.024Z,32.70
2022-12-18T23:17:31.367Z,34.40
2022-12-18T23:20:01.520Z,32.23
2022-12-18T23:22:34.440Z,32.63
2022-12-18T23:25:03.866Z,31.20
2022-12-18T23:27:34.673Z,34.50
2022-12-18T23:30:05.411Z,37.83
2022-12-18T23:32:37.039Z,35.27
2022-12-18T23:35:09.628Z,29.30
2022-12-18T23:37:59.298Z,28.77
2022-12-18T23:40:30.392Z,37.73
2022-12-18T23:43:01.764Z,30.03
2022-12-18T23:45:31.285Z,31.60
2022-12-18T23:48:00.868Z,37.23
2022-12-18T23:50:30.312Z,33.60
2022-12-18T23:53:04.895Z,38.37
2022-12-18T23:55:41.186Z,32.43
2022-12-18T23:58:18.308Z,29.53
